sensor_id;sensor_type;location;lat;lon;timestamp;P1;durP1;ratioP1;P2;durP2;ratioP2
57846;SDS011;43675;50.030;21.952;2024-03-23T00:56:09;31.40;;;28.50;;
57846;SDS011;43675;50.030;21.952;2024-03-23T00:58:36;32.10;;;28.90;;
57846;SDS011;43675;50.030;21.952;2024-03-23T01:01:02;31.40;;;28.50;;
57846;SDS011;43675;50.030;21.952;2024-03-23T01:03:29;30.90;;;28.00;;
57846;SDS011;43675;50.030;21.952;2024-03-23T01:06:00;29.90;;;27.10;;
57846;SDS011;43675;50.030;21.952;2024-03-23T01:08:26;31.00;;;28.00;;
57846;SDS011;43675;50.030;21.952;2024-03-23T01:10:54;31.50;;;28.50;;
57846;SDS011;43675;50.030;21.952;2024-03-23T01:13:24;31.00;;;28.10;;
57846;SDS011;43675;50.030;21.952;2024-03-23T01:15:51;31.60;;;28.60;;
57846;SDS011;43675;50.030;21.952;2024-03-23T01:18:19;31.70;;;28.80;;
57846;SDS011;43675;50.030;21.952;2024-03-23T01:20:46;30.80;;;27.70;;
57846;SDS011;43675;50.030;21.952;2024-03-23T01:23:13;31.00;;;27.90;;
57846;SDS011;43675;50.030;21.952;2024-03-23T01:25:40;30.80;;;28.10;;
57846;SDS011;43675;50.030;21.952;2024-03-23T01:28:07;30.90;;;27.90;;
57846;SDS011;43675;50.030;21.952;2024-03-23T01:30:34;30.70;;;27.70;;
57846;SDS011;43675;50.030;21.952;2024-03-23T01:33:01;31.40;;;28.50;;
57846;SDS011;43675;50.030;21.952;2024-03-23T01:35:34;30.90;;;28.10;;
57846;SDS011;43675;50.030;21.952;2024-03-23T01:38:01;31.10;;;28.30;;
57846;SDS011;43675;50.030;21.952;2024-03-23T01:40:33;31.70;;;28.60;;
57846;SDS011;43675;50.030;21.952;2024-03-23T01:43:03;32.00;;;29.00;;
57846;SDS011;43675;50.030;21.952;2024-03-23T01:45:31;31.30;;;28.30;;
57846;SDS011;43675;50.030;21.952;2024-03-23T01:47:58;30.50;;;27.70;;
57846;SDS011;43675;50.030;21.952;2024-03-23T01:50:25;31.20;;;28.20;;
57846;SDS011;43675;50.030;21.952;2024-03-23T01:52:53;31.70;;;28.90;;
57846;SDS011;43675;50.030;21.952;2024-03-23T01:55:20;32.10;;;29.00;;
57846;SDS011;43675;50.030;21.952;2024-03-23T01:57:47;32.20;;;29.20;;
57846;SDS011;43675;50.030;21.952;2024-03-23T02:00:13;31.80;;;28.90;;
57846;SDS011;43675;50.030;21.952;2024-03-23T02:02:49;31.20;;;28.30;;
57846;SDS011;43675;50.030;21.952;2024-03-23T02:05:16;31.00;;;28.10;;
57846;SDS011;43675;50.030;21.952;2024-03-23T02:07:42;32.50;;;29.50;;
57846;SDS011;43675;50.030;21.952;2024-03-23T02:10:09;32.20;;;29.10;;
57846;SDS011;43675;50.030;21.952;2024-03-23T02:12:37;31.20;;;28.30;;
57846;SDS011;43675;50.030;21.952;2024-03-23T02:15:03;31.40;;;28.50;;
57846;SDS011;43675;50.030;21.952;2024-03-23T02:17:30;31.90;;;28.90;;
57846;SDS011;43675;50.030;21.952;2024-03-23T02:19:59;31.30;;;28.40;;
57846;SDS011;43675;50.030;21.952;2024-03-23T02:22:38;31.10;;;28.40;;
57846;SDS011;43675;50.030;21.952;2024-03-23T02:25:05;32.00;;;28.90;;
57846;SDS011;43675;50.030;21.952;2024-03-23T02:27:32;31.40;;;28.40;;
57846;SDS011;43675;50.030;21.952;2024-03-23T02:29:59;31.20;;;28.30;;
57846;SDS011;43675;50.030;21.952;2024-03-23T02:32:25;31.40;;;28.60;;
57846;SDS011;43675;50.030;21.952;2024-03-23T02:34:52;31.00;;;28.10;;
57846;SDS011;43675;50.030;21.952;2024-03-23T02:37:25;30.70;;;27.90;;
57846;SDS011;43675;50.030;21.952;2024-03-23T02:39:52;31.20;;;28.20;;
57846;SDS011;43675;50.030;21.952;2024-03-23T02:42:18;31.10;;;28.20;;
57846;SDS011;43675;50.030;21.952;2024-03-23T02:44:45;31.60;;;28.50;;
57846;SDS011;43675;50.030;21.952;2024-03-23T02:47:17;31.40;;;28.40;;
57846;SDS011;43675;50.030;21.952;2024-03-23T02:49:44;31.60;;;28.40;;
57846;SDS011;43675;50.030;21.952;2024-03-23T02:52:10;31.10;;;28.30;;
57846;SDS011;43675;50.030;21.952;2024-03-23T02:54:37;31.60;;;28.80;;
57846;SDS011;43675;50.030;21.952;2024-03-23T02:57:04;30.50;;;27.90;;
57846;SDS011;43675;50.030;21.952;2024-03-23T02:59:30;31.90;;;28.90;;
57846;SDS011;43675;50.030;21.952;2024-03-23T03:01:57;31.70;;;28.60;;
57846;SDS011;43675;50.030;21.952;2024-03-23T03:04:23;31.50;;;28.60;;
57846;SDS011;43675;50.030;21.952;2024-03-23T03:06:50;31.30;;;28.30;;
57846;SDS011;43675;50.030;21.952;2024-03-23T03:09:16;30.40;;;27.50;;
57846;SDS011;43675;50.030;21.952;2024-03-23T03:11:43;30.30;;;27.40;;
57846;SDS011;43675;50.030;21.952;2024-03-23T03:14:09;30.70;;;27.70;;
57846;SDS011;43675;50.030;21.952;2024-03-23T03:16:35;30.70;;;27.60;;
57846;SDS011;43675;50.030;21.952;2024-03-23T03:19:02;31.60;;;28.50;;
57846;SDS011;43675;50.030;21.952;2024-03-23T03:21:29;30.90;;;28.10;;
57846;SDS011;43675;50.030;21.952;2024-03-23T03:23:55;31.30;;;28.30;;
57846;SDS011;43675;50.030;21.952;2024-03-23T03:26:22;31.50;;;28.60;;
57846;SDS011;43675;50.030;21.952;2024-03-23T03:28:50;31.80;;;28.80;;
57846;SDS011;43675;50.030;21.952;2024-03-23T03:31:17;31.20;;;28.40;;
57846;SDS011;43675;50.030;21.952;2024-03-23T03:33:44;31.50;;;28.50;;
57846;SDS011;43675;50.030;21.952;2024-03-23T03:36:17;31.70;;;28.70;;
57846;SDS011;43675;50.030;21.952;2024-03-23T03:38:44;32.40;;;29.40;;
57846;SDS011;43675;50.030;21.952;2024-03-23T03:41:10;32.40;;;29.30;;
57846;SDS011;43675;50.030;21.952;2024-03-23T03:43:37;31.50;;;28.60;;
57846;SDS011;43675;50.030;21.952;2024-03-23T03:46:03;31.40;;;28.50;;
57846;SDS011;43675;50.030;21.952;2024-03-23T03:48:30;30.70;;;27.50;;
57846;SDS011;43675;50.030;21.952;2024-03-23T03:50:56;32.20;;;29.10;;
57846;SDS011;43675;50.030;21.952;2024-03-23T03:53:29;31.20;;;28.20;;
57846;SDS011;43675;50.030;21.952;2024-03-23T03:55:56;32.20;;;29.10;;
57846;SDS011;43675;50.030;21.952;2024-03-23T03:58:26;31.40;;;28.40;;
57846;SDS011;43675;50.030;21.952;2024-03-23T04:00:53;31.90;;;29.00;;
57846;SDS011;43675;50.030;21.952;2024-03-23T04:03:20;32.60;;;29.40;;
57846;SDS011;43675;50.030;21.952;2024-03-23T04:05:53;33.00;;;29.90;;
57846;SDS011;43675;50.030;21.952;2024-03-23T04:08:20;32.00;;;29.10;;
57846;SDS011;43675;50.030;21.952;2024-03-23T04:10:47;31.50;;;28.40;;
57846;SDS011;43675;50.030;21.952;2024-03-23T04:13:14;31.60;;;28.70;;
57846;SDS011;43675;50.030;21.952;2024-03-23T04:15:40;32.40;;;29.20;;
57846;SDS011;43675;50.030;21.952;2024-03-23T04:18:07;31.70;;;28.80;;
57846;SDS011;43675;50.030;21.952;2024-03-23T04:20:39;31.40;;;28.50;;
57846;SDS011;43675;50.030;21.952;2024-03-23T04:23:06;32.30;;;29.40;;
57846;SDS011;43675;50.030;21.952;2024-03-23T04:25:32;32.40;;;29.50;;
57846;SDS011;43675;50.030;21.952;2024-03-23T04:27:59;31.80;;;28.80;;
57846;SDS011;43675;50.030;21.952;2024-03-23T04:30:25;31.50;;;28.60;;
57846;SDS011;43675;50.030;21.952;2024-03-23T04:32:52;33.20;;;29.90;;
57846;SDS011;43675;50.030;21.952;2024-03-23T04:35:18;31.00;;;28.10;;
57846;SDS011;43675;50.030;21.952;2024-03-23T04:37:45;30.80;;;27.80;;
57846;SDS011;43675;50.030;21.952;2024-03-23T04:40:11;31.10;;;28.10;;
57846;SDS011;43675;50.030;21.952;2024-03-23T04:42:38;31.90;;;29.00;;
57846;SDS011;43675;50.030;21.952;2024-03-23T04:45:04;31.90;;;28.80;;
57846;SDS011;43675;50.030;21.952;2024-03-23T04:47:31;33.30;;;29.90;;
57846;SDS011;43675;50.030;21.952;2024-03-23T04:49:58;32.10;;;29.00;;
57846;SDS011;43675;50.030;21.952;2024-03-23T04:52:24;32.60;;;29.50;;
57846;SDS011;43675;50.030;21.952;2024-03-23T04:54:51;32.50;;;29.40;;
57846;SDS011;43675;50.030;21.952;2024-03-23T04:57:17;31.70;;;28.80;;
57846;SDS011;43675;50.030;21.952;2024-03-23T04:59:44;32.80;;;29.80;;
57846;SDS011;43675;50.030;21.952;2024-03-23T05:02:10;32.30;;;29.30;;
57846;SDS011;43675;50.030;21.952;2024-03-23T05:04:37;32.60;;;29.40;;
57846;SDS011;43675;50.030;21.952;2024-03-23T05:07:03;32.30;;;29.40;;
57846;SDS011;43675;50.030;21.952;2024-03-23T05:09:31;32.50;;;29.60;;
57846;SDS011;43675;50.030;21.952;2024-03-23T05:11:57;32.90;;;29.80;;
57846;SDS011;43675;50.030;21.952;2024-03-23T05:14:24;32.70;;;29.70;;
57846;SDS011;43675;50.030;21.952;2024-03-23T05:16:57;32.30;;;29.30;;
57846;SDS011;43675;50.030;21.952;2024-03-23T05:19:24;32.70;;;29.60;;
57846;SDS011;43675;50.030;21.952;2024-03-23T05:21:57;31.50;;;28.70;;
57846;SDS011;43675;50.030;21.952;2024-03-23T05:24:24;32.80;;;29.80;;
57846;SDS011;43675;50.030;21.952;2024-03-23T05:26:50;31.70;;;28.90;;
57846;SDS011;43675;50.030;21.952;2024-03-23T05:29:17;32.60;;;29.30;;
57846;SDS011;43675;50.030;21.952;2024-03-23T05:31:44;33.20;;;30.10;;
57846;SDS011;43675;50.030;21.952;2024-03-23T05:34:15;32.60;;;29.50;;
57846;SDS011;43675;50.030;21.952;2024-03-23T05:36:41;33.90;;;30.60;;
57846;SDS011;43675;50.030;21.952;2024-03-23T05:39:08;32.70;;;29.70;;
57846;SDS011;43675;50.030;21.952;2024-03-23T05:41:35;33.00;;;29.90;;
57846;SDS011;43675;50.030;21.952;2024-03-23T05:44:02;32.10;;;29.20;;
57846;SDS011;43675;50.030;21.952;2024-03-23T05:46:28;33.20;;;30.10;;
57846;SDS011;43675;50.030;21.952;2024-03-23T05:48:56;33.00;;;30.00;;
57846;SDS011;43675;50.030;21.952;2024-03-23T05:51:27;34.00;;;30.70;;
57846;SDS011;43675;50.030;21.952;2024-03-23T05:53:54;32.10;;;29.10;;
57846;SDS011;43675;50.030;21.952;2024-03-23T05:56:20;33.50;;;30.40;;
57846;SDS011;43675;50.030;21.952;2024-03-23T05:58:47;32.10;;;29.20;;
57846;SDS011;43675;50.030;21.952;2024-03-23T06:01:13;33.30;;;30.10;;
57846;SDS011;43675;50.030;21.952;2024-03-23T06:03:40;32.20;;;29.20;;
57846;SDS011;43675;50.030;21.952;2024-03-23T06:06:06;33.20;;;30.20;;
57846;SDS011;43675;50.030;21.952;2024-03-23T06:08:39;34.00;;;30.70;;
57846;SDS011;43675;50.030;21.952;2024-03-23T06:11:12;33.20;;;30.10;;
57846;SDS011;43675;50.030;21.952;2024-03-23T06:13:39;33.50;;;30.20;;
57846;SDS011;43675;50.030;21.952;2024-03-23T06:16:05;33.60;;;30.40;;
57846;SDS011;43675;50.030;21.952;2024-03-23T06:18:32;32.90;;;29.90;;
57846;SDS011;43675;50.030;21.952;2024-03-23T06:20:58;32.40;;;29.40;;
57846;SDS011;43675;50.030;21.952;2024-03-23T06:23:25;33.20;;;30.20;;
57846;SDS011;43675;50.030;21.952;2024-03-23T06:25:51;33.10;;;30.00;;
57846;SDS011;43675;50.030;21.952;2024-03-23T06:28:18;33.90;;;30.60;;
57846;SDS011;43675;50.030;21.952;2024-03-23T06:30:44;32.20;;;29.00;;
57846;SDS011;43675;50.030;21.952;2024-03-23T06:33:11;33.00;;;29.70;;
57846;SDS011;43675;50.030;21.952;2024-03-23T06:35:37;32.20;;;29.20;;
57846;SDS011;43675;50.030;21.952;2024-03-23T06:38:04;32.10;;;29.00;;
57846;SDS011;43675;50.030;21.952;2024-03-23T06:40:30;32.50;;;29.30;;
57846;SDS011;43675;50.030;21.952;2024-03-23T06:42:56;32.30;;;29.00;;
57846;SDS011;43675;50.030;21.952;2024-03-23T06:45:23;33.00;;;29.90;;
57846;SDS011;43675;50.030;21.952;2024-03-23T06:47:49;32.30;;;29.20;;
57846;SDS011;43675;50.030;21.952;2024-03-23T06:50:16;32.00;;;28.90;;
57846;SDS011;43675;50.030;21.952;2024-03-23T06:52:42;32.50;;;29.60;;
57846;SDS011;43675;50.030;21.952;2024-03-23T06:55:15;32.20;;;29.30;;
57846;SDS011;43675;50.030;21.952;2024-03-23T06:57:42;32.70;;;29.50;;
57846;SDS011;43675;50.030;21.952;2024-03-23T07:00:08;33.20;;;30.00;;
57846;SDS011;43675;50.030;21.952;2024-03-23T07:02:36;32.30;;;29.30;;
57846;SDS011;43675;50.030;21.952;2024-03-23T07:05:02;34.40;;;30.20;;
57846;SDS011;43675;50.030;21.952;2024-03-23T07:07:29;33.70;;;30.30;;
57846;SDS011;43675;50.030;21.952;2024-03-23T07:09:55;34.00;;;30.70;;
57846;SDS011;43675;50.030;21.952;2024-03-23T07:12:22;33.10;;;29.90;;
57846;SDS011;43675;50.030;21.952;2024-03-23T07:14:54;34.60;;;31.20;;
57846;SDS011;43675;50.030;21.952;2024-03-23T07:17:21;34.00;;;30.80;;
57846;SDS011;43675;50.030;21.952;2024-03-23T07:19:47;33.50;;;30.20;;
57846;SDS011;43675;50.030;21.952;2024-03-23T07:22:14;33.10;;;30.10;;
57846;SDS011;43675;50.030;21.952;2024-03-23T07:24:40;31.80;;;28.90;;
57846;SDS011;43675;50.030;21.952;2024-03-23T07:27:07;32.10;;;29.10;;
57846;SDS011;43675;50.030;21.952;2024-03-23T07:29:33;32.10;;;29.00;;
57846;SDS011;43675;50.030;21.952;2024-03-23T07:32:00;32.60;;;29.60;;
57846;SDS011;43675;50.030;21.952;2024-03-23T07:34:26;33.40;;;30.30;;
57846;SDS011;43675;50.030;21.952;2024-03-23T07:36:53;32.10;;;29.00;;
57846;SDS011;43675;50.030;21.952;2024-03-23T07:39:19;31.10;;;28.10;;
57846;SDS011;43675;50.030;21.952;2024-03-23T07:41:45;32.00;;;29.00;;
57846;SDS011;43675;50.030;21.952;2024-03-23T07:44:12;30.90;;;28.20;;
57846;SDS011;43675;50.030;21.952;2024-03-23T07:46:39;32.00;;;29.10;;
57846;SDS011;43675;50.030;21.952;2024-03-23T07:49:11;32.30;;;29.20;;
57846;SDS011;43675;50.030;21.952;2024-03-23T07:51:38;32.50;;;29.50;;
57846;SDS011;43675;50.030;21.952;2024-03-23T07:54:10;33.20;;;30.10;;
57846;SDS011;43675;50.030;21.952;2024-03-23T07:56:37;32.90;;;29.90;;
57846;SDS011;43675;50.030;21.952;2024-03-23T07:59:04;33.40;;;30.10;;
57846;SDS011;43675;50.030;21.952;2024-03-23T08:01:30;34.10;;;30.70;;
57846;SDS011;43675;50.030;21.952;2024-03-23T08:03:57;32.00;;;29.10;;
57846;SDS011;43675;50.030;21.952;2024-03-23T08:06:23;33.40;;;30.30;;
57846;SDS011;43675;50.030;21.952;2024-03-23T08:08:51;32.50;;;29.60;;
57846;SDS011;43675;50.030;21.952;2024-03-23T08:11:19;32.80;;;29.90;;
57846;SDS011;43675;50.030;21.952;2024-03-23T08:13:45;31.70;;;28.80;;
57846;SDS011;43675;50.030;21.952;2024-03-23T08:16:12;32.40;;;29.40;;
57846;SDS011;43675;50.030;21.952;2024-03-23T08:18:38;31.60;;;28.70;;
57846;SDS011;43675;50.030;21.952;2024-03-23T08:21:06;30.70;;;27.90;;
57846;SDS011;43675;50.030;21.952;2024-03-23T08:23:33;33.10;;;29.80;;
57846;SDS011;43675;50.030;21.952;2024-03-23T08:26:01;31.30;;;28.30;;
57846;SDS011;43675;50.030;21.952;2024-03-23T08:28:28;32.80;;;29.60;;
57846;SDS011;43675;50.030;21.952;2024-03-23T08:30:55;31.80;;;28.90;;
57846;SDS011;43675;50.030;21.952;2024-03-23T08:33:23;31.40;;;28.40;;
57846;SDS011;43675;50.030;21.952;2024-03-23T08:35:56;33.50;;;30.30;;
57846;SDS011;43675;50.030;21.952;2024-03-23T08:38:27;31.90;;;28.80;;
57846;SDS011;43675;50.030;21.952;2024-03-23T08:41:00;31.60;;;28.50;;
57846;SDS011;43675;50.030;21.952;2024-03-23T08:43:41;29.80;;;27.00;;
57846;SDS011;43675;50.030;21.952;2024-03-23T08:48:38;31.40;;;28.40;;
57846;SDS011;43675;50.030;21.952;2024-03-23T08:51:14;30.60;;;27.50;;
57846;SDS011;43675;50.030;21.952;2024-03-23T08:53:42;29.80;;;26.90;;
57846;SDS011;43675;50.030;21.952;2024-03-23T08:56:09;30.40;;;27.30;;
57846;SDS011;43675;50.030;21.952;2024-03-23T08:58:36;30.20;;;27.10;;
57846;SDS011;43675;50.030;21.952;2024-03-23T09:01:11;29.90;;;27.20;;
57846;SDS011;43675;50.030;21.952;2024-03-23T09:03:39;30.70;;;28.00;;
57846;SDS011;43675;50.030;21.952;2024-03-23T09:06:09;30.50;;;27.70;;
57846;SDS011;43675;50.030;21.952;2024-03-23T09:08:38;30.40;;;27.70;;
57846;SDS011;43675;50.030;21.952;2024-03-23T09:11:08;31.30;;;28.30;;
57846;SDS011;43675;50.030;21.952;2024-03-23T09:13:38;29.20;;;26.60;;
57846;SDS011;43675;50.030;21.952;2024-03-23T09:16:06;30.80;;;27.90;;
57846;SDS011;43675;50.030;21.952;2024-03-23T09:18:39;30.70;;;28.00;;
57846;SDS011;43675;50.030;21.952;2024-03-23T09:21:11;30.10;;;27.40;;
57846;SDS011;43675;50.030;21.952;2024-03-23T09:23:39;29.00;;;26.50;;
57846;SDS011;43675;50.030;21.952;2024-03-23T09:26:05;30.10;;;27.40;;
57846;SDS011;43675;50.030;21.952;2024-03-23T09:28:32;29.90;;;27.30;;
57846;SDS011;43675;50.030;21.952;2024-03-23T09:31:02;29.20;;;26.40;;
57846;SDS011;43675;50.030;21.952;2024-03-23T09:33:29;29.20;;;26.60;;
57846;SDS011;43675;50.030;21.952;2024-03-23T09:35:56;27.50;;;25.10;;
57846;SDS011;43675;50.030;21.952;2024-03-23T09:38:22;30.80;;;28.00;;
57846;SDS011;43675;50.030;21.952;2024-03-23T09:40:52;30.10;;;27.50;;
57846;SDS011;43675;50.030;21.952;2024-03-23T09:43:19;30.30;;;27.40;;
57846;SDS011;43675;50.030;21.952;2024-03-23T09:45:46;28.70;;;26.10;;
57846;SDS011;43675;50.030;21.952;2024-03-23T09:48:12;29.80;;;27.00;;
57846;SDS011;43675;50.030;21.952;2024-03-23T09:50:39;30.10;;;27.50;;
57846;SDS011;43675;50.030;21.952;2024-03-23T09:53:07;29.90;;;27.20;;
57846;SDS011;43675;50.030;21.952;2024-03-23T09:58:08;29.90;;;27.00;;
57846;SDS011;43675;50.030;21.952;2024-03-23T10:00:38;30.50;;;27.60;;
57846;SDS011;43675;50.030;21.952;2024-03-23T10:03:04;30.00;;;27.50;;
57846;SDS011;43675;50.030;21.952;2024-03-23T10:05:31;31.00;;;28.10;;
57846;SDS011;43675;50.030;21.952;2024-03-23T10:07:58;29.70;;;27.10;;
57846;SDS011;43675;50.030;21.952;2024-03-23T10:10:25;32.10;;;29.10;;
57846;SDS011;43675;50.030;21.952;2024-03-23T10:12:52;31.50;;;28.70;;
57846;SDS011;43675;50.030;21.952;2024-03-23T10:15:22;31.60;;;28.60;;
57846;SDS011;43675;50.030;21.952;2024-03-23T10:17:50;30.10;;;27.40;;
57846;SDS011;43675;50.030;21.952;2024-03-23T10:20:23;30.30;;;27.60;;
57846;SDS011;43675;50.030;21.952;2024-03-23T10:22:50;29.40;;;26.80;;
57846;SDS011;43675;50.030;21.952;2024-03-23T10:25:17;29.40;;;26.60;;
57846;SDS011;43675;50.030;21.952;2024-03-23T10:28:00;30.10;;;27.30;;
57846;SDS011;43675;50.030;21.952;2024-03-23T10:30:27;30.30;;;27.70;;
57846;SDS011;43675;50.030;21.952;2024-03-23T10:33:12;30.60;;;27.50;;
57846;SDS011;43675;50.030;21.952;2024-03-23T10:35:39;31.10;;;28.30;;
57846;SDS011;43675;50.030;21.952;2024-03-23T10:38:06;30.90;;;27.90;;
57846;SDS011;43675;50.030;21.952;2024-03-23T10:40:34;30.50;;;27.70;;
57846;SDS011;43675;50.030;21.952;2024-03-23T10:43:02;29.90;;;27.30;;
57846;SDS011;43675;50.030;21.952;2024-03-23T10:45:30;29.00;;;26.20;;
57846;SDS011;43675;50.030;21.952;2024-03-23T10:47:57;28.50;;;25.80;;
57846;SDS011;43675;50.030;21.952;2024-03-23T10:50:23;28.70;;;26.20;;
57846;SDS011;43675;50.030;21.952;2024-03-23T10:52:50;27.40;;;24.90;;
57846;SDS011;43675;50.030;21.952;2024-03-23T10:55:26;28.40;;;25.60;;
57846;SDS011;43675;50.030;21.952;2024-03-23T10:57:54;29.10;;;26.00;;
57846;SDS011;43675;50.030;21.952;2024-03-23T11:00:24;28.20;;;25.40;;
57846;SDS011;43675;50.030;21.952;2024-03-23T11:02:51;28.90;;;26.30;;
57846;SDS011;43675;50.030;21.952;2024-03-23T11:07:53;29.80;;;26.80;;
57846;SDS011;43675;50.030;21.952;2024-03-23T11:10:29;28.10;;;25.50;;
57846;SDS011;43675;50.030;21.952;2024-03-23T11:12:57;28.40;;;25.80;;
57846;SDS011;43675;50.030;21.952;2024-03-23T11:15:23;27.40;;;24.90;;
57846;SDS011;43675;50.030;21.952;2024-03-23T11:18:06;28.40;;;25.80;;
57846;SDS011;43675;50.030;21.952;2024-03-23T11:20:34;27.70;;;25.20;;
57846;SDS011;43675;50.030;21.952;2024-03-23T11:23:01;27.80;;;25.40;;
57846;SDS011;43675;50.030;21.952;2024-03-23T11:25:28;28.20;;;25.60;;
57846;SDS011;43675;50.030;21.952;2024-03-23T11:28:11;27.90;;;25.40;;
57846;SDS011;43675;50.030;21.952;2024-03-23T11:30:38;28.40;;;25.90;;
57846;SDS011;43675;50.030;21.952;2024-03-23T11:33:05;28.60;;;26.00;;
57846;SDS011;43675;50.030;21.952;2024-03-23T11:35:33;28.70;;;25.90;;
57846;SDS011;43675;50.030;21.952;2024-03-23T11:38:10;29.30;;;26.50;;
57846;SDS011;43675;50.030;21.952;2024-03-23T11:43:08;28.00;;;25.50;;
57846;SDS011;43675;50.030;21.952;2024-03-23T11:45:37;28.50;;;25.80;;
57846;SDS011;43675;50.030;21.952;2024-03-23T11:48:05;28.50;;;25.90;;
57846;SDS011;43675;50.030;21.952;2024-03-23T11:50:33;28.80;;;26.20;;
57846;SDS011;43675;50.030;21.952;2024-03-23T11:53:07;29.30;;;26.40;;
57846;SDS011;43675;50.030;21.952;2024-03-23T11:55:46;28.30;;;25.70;;
57846;SDS011;43675;50.030;21.952;2024-03-23T11:58:16;30.00;;;27.20;;
57846;SDS011;43675;50.030;21.952;2024-03-23T12:01:09;29.40;;;26.70;;
57846;SDS011;43675;50.030;21.952;2024-03-23T12:03:36;28.20;;;25.90;;
57846;SDS011;43675;50.030;21.952;2024-03-23T12:06:03;28.70;;;26.00;;
57846;SDS011;43675;50.030;21.952;2024-03-23T12:08:31;28.00;;;25.50;;
57846;SDS011;43675;50.030;21.952;2024-03-23T12:11:15;27.70;;;25.10;;
57846;SDS011;43675;50.030;21.952;2024-03-23T12:13:43;26.20;;;23.90;;
57846;SDS011;43675;50.030;21.952;2024-03-23T12:16:11;26.20;;;24.00;;
57846;SDS011;43675;50.030;21.952;2024-03-23T12:18:50;25.40;;;23.10;;
57846;SDS011;43675;50.030;21.952;2024-03-23T12:21:17;26.00;;;23.60;;
57846;SDS011;43675;50.030;21.952;2024-03-23T12:23:43;26.70;;;24.10;;
57846;SDS011;43675;50.030;21.952;2024-03-23T12:26:11;26.20;;;23.70;;
57846;SDS011;43675;50.030;21.952;2024-03-23T12:28:44;25.90;;;23.60;;
57846;SDS011;43675;50.030;21.952;2024-03-23T12:31:10;25.90;;;23.70;;
57846;SDS011;43675;50.030;21.952;2024-03-23T12:33:37;25.50;;;23.40;;
57846;SDS011;43675;50.030;21.952;2024-03-23T12:36:03;25.30;;;23.10;;
57846;SDS011;43675;50.030;21.952;2024-03-23T12:38:37;25.90;;;23.60;;
57846;SDS011;43675;50.030;21.952;2024-03-23T12:41:03;26.70;;;24.20;;
57846;SDS011;43675;50.030;21.952;2024-03-23T12:43:31;26.30;;;23.80;;
57846;SDS011;43675;50.030;21.952;2024-03-23T12:45:57;25.90;;;23.70;;
57846;SDS011;43675;50.030;21.952;2024-03-23T12:48:24;25.90;;;23.60;;
57846;SDS011;43675;50.030;21.952;2024-03-23T12:50:54;26.30;;;24.00;;
57846;SDS011;43675;50.030;21.952;2024-03-23T12:53:21;26.20;;;23.70;;
57846;SDS011;43675;50.030;21.952;2024-03-23T12:55:47;25.50;;;23.30;;
57846;SDS011;43675;50.030;21.952;2024-03-23T12:58:20;25.90;;;23.60;;
57846;SDS011;43675;50.030;21.952;2024-03-23T13:00:46;25.80;;;23.50;;
57846;SDS011;43675;50.030;21.952;2024-03-23T13:03:13;25.70;;;23.60;;
57846;SDS011;43675;50.030;21.952;2024-03-23T13:05:40;26.30;;;24.00;;
57846;SDS011;43675;50.030;21.952;2024-03-23T13:08:06;25.60;;;23.20;;
57846;SDS011;43675;50.030;21.952;2024-03-23T13:10:33;24.10;;;22.00;;
57846;SDS011;43675;50.030;21.952;2024-03-23T13:12:59;24.60;;;22.40;;
57846;SDS011;43675;50.030;21.952;2024-03-23T13:15:26;25.00;;;22.90;;
57846;SDS011;43675;50.030;21.952;2024-03-23T13:17:52;24.60;;;22.40;;
57846;SDS011;43675;50.030;21.952;2024-03-23T13:20:18;25.40;;;23.10;;
57846;SDS011;43675;50.030;21.952;2024-03-23T13:22:45;25.40;;;23.10;;
57846;SDS011;43675;50.030;21.952;2024-03-23T13:25:12;25.50;;;23.30;;
57846;SDS011;43675;50.030;21.952;2024-03-23T13:27:38;25.30;;;23.10;;
57846;SDS011;43675;50.030;21.952;2024-03-23T13:30:05;25.50;;;23.30;;
57846;SDS011;43675;50.030;21.952;2024-03-23T13:32:32;27.00;;;24.50;;
57846;SDS011;43675;50.030;21.952;2024-03-23T13:34:58;27.40;;;25.00;;
57846;SDS011;43675;50.030;21.952;2024-03-23T13:37:31;27.00;;;24.70;;
57846;SDS011;43675;50.030;21.952;2024-03-23T13:39:57;27.20;;;24.70;;
57846;SDS011;43675;50.030;21.952;2024-03-23T13:42:24;26.40;;;24.10;;
57846;SDS011;43675;50.030;21.952;2024-03-23T13:44:50;26.60;;;24.30;;
57846;SDS011;43675;50.030;21.952;2024-03-23T13:47:17;26.10;;;23.80;;
57846;SDS011;43675;50.030;21.952;2024-03-23T13:49:43;26.90;;;24.40;;
57846;SDS011;43675;50.030;21.952;2024-03-23T13:52:10;26.30;;;23.90;;
57846;SDS011;43675;50.030;21.952;2024-03-23T13:54:36;26.50;;;24.00;;
57846;SDS011;43675;50.030;21.952;2024-03-23T13:57:09;26.80;;;24.40;;
57846;SDS011;43675;50.030;21.952;2024-03-23T13:59:35;26.40;;;24.00;;
57846;SDS011;43675;50.030;21.952;2024-03-23T14:02:02;26.60;;;24.20;;
57846;SDS011;43675;50.030;21.952;2024-03-23T14:04:29;25.80;;;23.50;;
57846;SDS011;43675;50.030;21.952;2024-03-23T14:07:02;26.90;;;24.30;;
57846;SDS011;43675;50.030;21.952;2024-03-23T14:09:28;26.30;;;23.80;;
57846;SDS011;43675;50.030;21.952;2024-03-23T14:11:55;25.10;;;22.90;;
57846;SDS011;43675;50.030;21.952;2024-03-23T14:14:21;26.20;;;23.90;;
57846;SDS011;43675;50.030;21.952;2024-03-23T14:16:48;25.40;;;23.30;;
57846;SDS011;43675;50.030;21.952;2024-03-23T14:19:14;25.60;;;23.20;;
57846;SDS011;43675;50.030;21.952;2024-03-23T14:21:41;26.10;;;23.90;;
57846;SDS011;43675;50.030;21.952;2024-03-23T14:24:07;26.40;;;24.10;;
57846;SDS011;43675;50.030;21.952;2024-03-23T14:26:34;25.50;;;23.20;;
57846;SDS011;43675;50.030;21.952;2024-03-23T14:29:00;25.80;;;23.50;;
57846;SDS011;43675;50.030;21.952;2024-03-23T14:31:27;26.60;;;24.10;;
57846;SDS011;43675;50.030;21.952;2024-03-23T14:33:53;27.10;;;24.70;;
57846;SDS011;43675;50.030;21.952;2024-03-23T14:36:19;27.90;;;25.40;;
57846;SDS011;43675;50.030;21.952;2024-03-23T14:38:49;27.90;;;25.40;;
57846;SDS011;43675;50.030;21.952;2024-03-23T14:41:15;28.70;;;25.70;;
57846;SDS011;43675;50.030;21.952;2024-03-23T14:43:42;27.30;;;24.70;;
57846;SDS011;43675;50.030;21.952;2024-03-23T14:46:12;27.50;;;24.90;;
57846;SDS011;43675;50.030;21.952;2024-03-23T14:48:40;28.60;;;25.80;;
57846;SDS011;43675;50.030;21.952;2024-03-23T14:51:08;27.20;;;24.90;;
57846;SDS011;43675;50.030;21.952;2024-03-23T14:53:35;28.20;;;25.50;;
57846;SDS011;43675;50.030;21.952;2024-03-23T14:56:03;29.30;;;26.50;;
57846;SDS011;43675;50.030;21.952;2024-03-23T14:58:37;27.90;;;25.40;;
57846;SDS011;43675;50.030;21.952;2024-03-23T15:01:04;28.80;;;26.10;;
57846;SDS011;43675;50.030;21.952;2024-03-23T15:03:32;28.40;;;25.90;;
57846;SDS011;43675;50.030;21.952;2024-03-23T15:05:58;28.20;;;25.40;;
57846;SDS011;43675;50.030;21.952;2024-03-23T15:08:25;27.90;;;25.40;;
57846;SDS011;43675;50.030;21.952;2024-03-23T15:10:52;29.00;;;26.10;;
57846;SDS011;43675;50.030;21.952;2024-03-23T15:13:18;28.90;;;26.20;;
57846;SDS011;43675;50.030;21.952;2024-03-23T15:15:45;28.20;;;25.90;;
57846;SDS011;43675;50.030;21.952;2024-03-23T15:18:12;30.70;;;28.00;;